Time;durP1;ratioP1;P1;durP2;ratioP2;P2;SDS_P1;SDS_P2;PMS_P1;PMS_P2;Temp;Humidity;BMP_temperature;BMP_pressure;BME280_temperature;BME280_humidity;BME280_pressure;Samples;Min_cycle;Max_cycle;Signal;HPM_P1;HPM_P2
2024/04/04 00:01:09;;;;;;;1.83;1.20;;;16.10;67.50;;;;;;5004773;28;20227;-58
2024/04/04 00:03:36;;;;;;;3.83;1.40;;;15.80;67.60;;;;;;5003591;28;20436;-61
2024/04/04 00:06:02;;;;;;;1.40;1.00;;;15.70;67.80;;;;;;5003080;28;20496;-62
2024/04/04 00:08:27;;;;;;;1.93;1.13;;;15.70;68.00;;;;;;5005463;28;20476;-66
2024/04/04 00:10:56;;;;;;;2.70;1.10;;;15.80;67.80;;;;;;5002953;28;20742;-65
2024/04/04 00:13:22;;;;;;;4.70;1.30;;;16.00;67.40;;;;;;5004964;28;20681;-62
2024/04/04 00:15:47;;;;;;;1.80;1.20;;;16.10;67.30;;;;;;5016369;28;20432;-62
2024/04/04 00:18:13;;;;;;;2.67;1.33;;;16.10;67.20;;;;;;5020067;28;20470;-59
2024/04/04 00:20:39;;;;;;;1.57;0.90;;;16.20;66.70;;;;;;5019722;28;20215;-65
2024/04/04 00:23:05;;;;;;;2.30;1.10;;;16.30;66.30;;;;;;5025336;28;20181;-60
2024/04/04 00:25:34;;;;;;;5.10;1.20;;;16.50;65.60;;;;;;5018869;28;20912;-62
2024/04/04 00:27:59;;;;;;;2.33;1.50;;;16.40;65.60;;;;;;5019121;28;20206;-63
2024/04/04 00:30:25;;;;;;;2.40;1.33;;;16.50;65.50;;;;;;5022267;28;20995;-62
2024/04/04 00:32:53;;;;;;;1.63;1.00;;;16.70;65.20;;;;;;5014557;28;20194;-61
2024/04/04 00:35:18;;;;;;;2.97;1.07;;;16.70;64.70;;;;;;5013018;28;20189;-59
2024/04/04 00:37:47;;;;;;;2.70;1.40;;;16.70;64.70;;;;;;5009733;28;20488;-61
2024/04/04 00:40:13;;;;;;;4.80;1.67;;;16.80;64.50;;;;;;5005146;28;20252;-61
2024/04/04 00:42:38;;;;;;;2.07;1.23;;;17.00;64.20;;;;;;5013050;28;20449;-62
2024/04/04 00:45:05;;;;;;;2.50;1.10;;;17.10;63.80;;;;;;5016190;28;21234;-62
2024/04/04 00:47:31;;;;;;;2.37;1.63;;;17.30;63.40;;;;;;5012979;28;20244;-61
2024/04/04 00:49:56;;;;;;;5.23;1.60;;;17.30;63.30;;;;;;5004283;28;20473;-61
2024/04/04 00:52:22;;;;;;;2.30;1.00;;;17.30;62.90;;;;;;5015138;28;20229;-60
2024/04/04 00:54:48;;;;;;;2.80;1.20;;;17.30;62.70;;;;;;5014623;28;20663;-64
2024/04/04 00:57:14;;;;;;;3.90;1.40;;;17.40;62.60;;;;;;5015649;28;20588;-61
2024/04/04 00:59:39;;;;;;;0.87;0.87;;;17.40;62.20;;;;;;5015872;28;20181;-65
2024/04/04 01:02:05;;;;;;;1.80;1.10;;;17.40;62.10;;;;;;5019671;28;20817;-60
2024/04/04 01:04:31;;;;;;;3.70;1.50;;;17.30;62.30;;;;;;5022217;28;20243;-60
2024/04/04 01:06:57;;;;;;;2.00;1.00;;;17.30;62.40;;;;;;5021394;28;20238;-61
2024/04/04 01:09:22;;;;;;;1.93;1.20;;;17.20;62.70;;;;;;5017702;28;20320;-63
2024/04/04 01:11:48;;;;;;;3.00;1.07;;;17.20;62.40;;;;;;5019053;28;20451;-65
2024/04/04 01:14:14;;;;;;;2.07;1.00;;;17.10;62.60;;;;;;5010306;28;20186;-65
2024/04/04 01:16:39;;;;;;;2.87;1.23;;;17.20;62.10;;;;;;5008917;28;20582;-66
2024/04/04 01:19:05;;;;;;;3.67;1.10;;;17.20;61.80;;;;;;5013752;28;20189;-59
2024/04/04 01:21:30;;;;;;;3.10;1.10;;;17.10;61.80;;;;;;5015558;28;20217;-59
2024/04/04 01:23:56;;;;;;;1.80;1.00;;;17.10;61.90;;;;;;5010518;28;20189;-66
2024/04/04 01:26:22;;;;;;;3.80;1.30;;;17.10;61.90;;;;;;5012232;28;20197;-63
2024/04/04 01:28:47;;;;;;;1.63;1.10;;;16.90;62.10;;;;;;5013978;28;21083;-62
2024/04/04 01:31:13;;;;;;;2.20;1.10;;;16.70;62.40;;;;;;5013065;28;20268;-63
2024/04/04 01:33:39;;;;;;;1.97;1.20;;;16.80;62.30;;;;;;5016121;28;20185;-65
2024/04/04 01:36:05;;;;;;;1.50;0.93;;;16.80;61.70;;;;;;5003056;28;20455;-64
2024/04/04 01:38:30;;;;;;;4.10;1.30;;;16.90;61.60;;;;;;4999346;28;20603;-65
2024/04/04 01:40:56;;;;;;;3.07;1.00;;;16.80;61.60;;;;;;4999638;28;20599;-62
2024/04/04 01:43:22;;;;;;;5.83;1.23;;;16.80;61.50;;;;;;5002443;28;20701;-60
2024/04/04 01:45:47;;;;;;;3.23;1.23;;;16.90;61.10;;;;;;5001063;28;20296;-62
2024/04/04 01:48:13;;;;;;;1.60;1.07;;;17.10;60.50;;;;;;5006098;28;20812;-60
2024/04/04 01:50:39;;;;;;;2.60;1.00;;;16.90;60.30;;;;;;5007783;28;20225;-67
2024/04/04 01:53:05;;;;;;;2.03;0.87;;;16.90;60.40;;;;;;5006391;28;20288;-64
2024/04/04 01:55:30;;;;;;;1.83;0.90;;;16.90;60.10;;;;;;5007416;28;20678;-62
2024/04/04 01:57:57;;;;;;;4.23;0.90;;;17.00;59.90;;;;;;5006166;28;21012;-57
2024/04/04 02:00:23;;;;;;;3.77;1.40;;;17.10;59.70;;;;;;5012359;28;20252;-65
2024/04/04 02:02:48;;;;;;;2.77;1.00;;;17.20;59.80;;;;;;5001694;28;21007;-62
2024/04/04 02:05:14;;;;;;;0.73;0.73;;;17.30;59.50;;;;;;5002321;28;20268;-59
2024/04/04 02:07:39;;;;;;;2.20;1.00;;;17.40;59.50;;;;;;5008583;28;20197;-65
2024/04/04 02:10:05;;;;;;;1.30;1.00;;;17.30;59.30;;;;;;5012682;28;20194;-64
2024/04/04 02:12:31;;;;;;;2.00;0.90;;;17.20;59.40;;;;;;5011418;28;20239;-58
2024/04/04 02:14:57;;;;;;;1.03;0.83;;;17.20;59.50;;;;;;5008165;28;20206;-68
2024/04/04 02:17:23;;;;;;;3.47;1.20;;;17.30;59.50;;;;;;5009292;28;20472;-59
2024/04/04 02:19:49;;;;;;;1.37;0.93;;;17.40;59.50;;;;;;5008692;28;20288;-61
2024/04/04 02:22:15;;;;;;;1.47;1.20;;;17.40;59.70;;;;;;5012813;28;20861;-63
2024/04/04 02:24:42;;;;;;;2.37;1.10;;;17.40;59.70;;;;;;5011129;28;20444;-65
2024/04/04 02:27:08;;;;;;;4.60;1.20;;;17.30;60.10;;;;;;5009736;28;20512;-62
2024/04/04 02:29:34;;;;;;;1.00;0.90;;;17.20;60.60;;;;;;5010097;28;20452;-59
2024/04/04 02:32:00;;;;;;;2.23;1.10;;;17.30;60.70;;;;;;5006940;28;20444;-61
2024/04/04 02:34:25;;;;;;;2.30;0.90;;;17.10;60.90;;;;;;5003251;28;20444;-63
2024/04/04 02:36:51;;;;;;;2.60;1.40;;;17.00;61.20;;;;;;5006474;28;20210;-66
2024/04/04 02:39:17;;;;;;;4.10;1.10;;;16.80;62.10;;;;;;5012185;28;20292;-65
2024/04/04 02:41:43;;;;;;;0.97;0.87;;;17.00;61.80;;;;;;5011622;28;20213;-56
2024/04/04 02:44:10;;;;;;;2.43;0.97;;;17.20;61.50;;;;;;5009112;28;20193;-67
2024/04/04 02:46:35;;;;;;;4.00;1.20;;;17.20;61.10;;;;;;5002106;28;20634;-65
2024/04/04 02:49:02;;;;;;;2.70;0.90;;;17.20;61.00;;;;;;5009698;28;20523;-65
2024/04/04 02:51:28;;;;;;;1.10;1.00;;;17.30;60.90;;;;;;5005675;28;20200;-65
2024/04/04 02:53:53;;;;;;;3.10;1.57;;;17.30;60.90;;;;;;5017395;28;20445;-65
2024/04/04 02:56:19;;;;;;;1.93;0.90;;;17.20;61.20;;;;;;5010313;28;20538;-62
2024/04/04 02:58:45;;;;;;;1.07;0.93;;;17.20;61.10;;;;;;5007896;28;20186;-60
2024/04/04 03:01:11;;;;;;;0.90;0.90;;;17.10;61.30;;;;;;5006303;28;20509;-61
2024/04/04 03:03:36;;;;;;;2.10;1.20;;;17.20;61.50;;;;;;5013507;28;20190;-60
2024/04/04 03:06:02;;;;;;;1.20;1.00;;;16.90;62.40;;;;;;5006734;28;20197;-61
2024/04/04 03:08:28;;;;;;;1.33;0.93;;;16.80;62.80;;;;;;5007282;28;20205;-62
2024/04/04 03:10:54;;;;;;;2.80;1.10;;;16.60;63.00;;;;;;5015501;28;20442;-65
2024/04/04 03:13:19;;;;;;;2.20;1.10;;;16.30;64.30;;;;;;5018992;28;20185;-62
2024/04/04 03:15:58;;;;;;;1.20;1.10;;;16.30;65.00;;;;;;5011574;28;20197;-62
2024/04/04 03:18:23;;;;;;;1.97;0.90;;;16.10;64.90;;;;;;5003528;28;20209;-65
2024/04/04 03:20:49;;;;;;;2.60;1.10;;;16.00;65.70;;;;;;5005146;28;20475;-62
2024/04/04 03:23:15;;;;;;;1.57;1.30;;;16.10;65.70;;;;;;5007508;28;20616;-61
2024/04/04 03:25:41;;;;;;;1.70;1.00;;;16.00;65.70;;;;;;5006705;28;20186;-62
2024/04/04 03:28:06;;;;;;;1.30;1.10;;;15.90;66.10;;;;;;5010289;28;20237;-61
2024/04/04 03:30:32;;;;;;;2.63;1.20;;;16.00;66.00;;;;;;5008170;28;20193;-67
2024/04/04 03:32:57;;;;;;;1.80;0.97;;;16.00;66.00;;;;;;5001449;28;20859;-61
2024/04/04 03:35:25;;;;;;;2.00;1.07;;;16.30;65.50;;;;;;5002383;28;20194;-61
2024/04/04 03:37:50;;;;;;;1.23;0.80;;;16.10;65.20;;;;;;5005100;28;20214;-63
2024/04/04 03:40:16;;;;;;;0.90;0.70;;;16.20;65.00;;;;;;5003411;28;20476;-68
2024/04/04 03:42:42;;;;;;;1.20;0.80;;;16.00;65.40;;;;;;5004597;28;20182;-64
2024/04/04 03:45:08;;;;;;;1.87;0.83;;;16.10;65.60;;;;;;5001270;28;20440;-63
2024/04/04 03:47:34;;;;;;;3.07;1.00;;;16.00;65.80;;;;;;5005984;28;20279;-65
2024/04/04 03:50:01;;;;;;;6.20;3.20;;;16.10;65.80;;;;;;5004568;28;20189;-64
2024/04/04 03:52:28;;;;;;;1.73;1.00;;;16.30;65.10;;;;;;5003545;28;20441;-61
2024/04/04 03:54:53;;;;;;;1.93;1.10;;;16.30;64.80;;;;;;5005070;28;21047;-64
2024/04/04 03:57:19;;;;;;;3.63;1.00;;;16.50;64.10;;;;;;5001338;28;20487;-62
2024/04/04 03:59:45;;;;;;;3.47;1.33;;;16.70;63.30;;;;;;5006905;28;20209;-64
2024/04/04 04:02:10;;;;;;;1.50;1.00;;;16.70;62.90;;;;;;5010269;28;20260;-64
2024/04/04 04:04:36;;;;;;;1.50;1.07;;;16.60;63.10;;;;;;5014228;28;20712;-60
2024/04/04 04:07:01;;;;;;;1.43;1.30;;;16.40;63.70;;;;;;5004886;28;20943;-62
2024/04/04 04:09:27;;;;;;;1.87;1.00;;;16.30;63.90;;;;;;5005014;28;20186;-67
2024/04/04 04:11:53;;;;;;;1.70;1.17;;;16.30;64.00;;;;;;5003447;28;20586;-61
2024/04/04 04:14:18;;;;;;;2.60;1.10;;;16.40;64.00;;;;;;5013774;28;20603;-59
2024/04/04 04:16:44;;;;;;;1.13;1.00;;;16.50;63.70;;;;;;5014293;28;20237;-61
2024/04/04 04:19:09;;;;;;;1.83;0.97;;;16.40;63.90;;;;;;5014075;28;20182;-64
2024/04/04 04:21:35;;;;;;;2.63;1.30;;;16.40;63.60;;;;;;5017125;28;20293;-63
2024/04/04 04:24:02;;;;;;;1.83;1.13;;;16.50;63.60;;;;;;5018369;28;20217;-63
2024/04/04 04:26:29;;;;;;;1.70;1.03;;;16.50;63.50;;;;;;5003414;28;20213;-62
2024/04/04 04:28:55;;;;;;;1.20;1.07;;;16.50;63.50;;;;;;5010183;28;20441;-63
2024/04/04 04:31:27;;;;;;;2.97;1.20;;;16.40;63.70;;;;;;5011616;28;20940;-61
2024/04/04 04:33:54;;;;;;;0.80;0.80;;;16.30;64.30;;;;;;5014586;28;20192;-63
2024/04/04 04:36:23;;;;;;;2.20;1.20;;;16.10;64.80;;;;;;5003970;28;20548;-61
2024/04/04 04:38:48;;;;;;;1.17;0.90;;;16.20;65.50;;;;;;5003391;28;20432;-65
2024/04/04 04:41:14;;;;;;;1.83;1.10;;;16.10;64.90;;;;;;5017881;28;20472;-61
2024/04/04 04:43:42;;;;;;;2.40;1.10;;;16.20;64.90;;;;;;5001339;28;20563;-63
2024/04/04 04:46:08;;;;;;;2.43;1.13;;;16.30;64.30;;;;;;5004635;28;20225;-61
2024/04/04 04:48:34;;;;;;;1.30;0.97;;;16.40;64.10;;;;;;5010403;28;20444;-61
2024/04/04 04:51:00;;;;;;;1.50;0.97;;;16.30;64.30;;;;;;5011988;28;20433;-60
2024/04/04 04:53:25;;;;;;;1.80;1.27;;;16.20;64.20;;;;;;5015152;28;20186;-61
2024/04/04 04:55:51;;;;;;;1.77;1.10;;;16.10;64.90;;;;;;5008452;28;20662;-64
2024/04/04 04:58:20;;;;;;;3.27;1.07;;;16.10;65.10;;;;;;5010618;28;20236;-66
2024/04/04 05:00:46;;;;;;;1.97;1.10;;;16.20;64.80;;;;;;5010153;28;21007;-64
2024/04/04 05:03:12;;;;;;;3.73;0.93;;;16.20;64.60;;;;;;5004649;28;20498;-64
2024/04/04 05:05:38;;;;;;;1.47;1.00;;;16.30;64.20;;;;;;5004901;28;20445;-61
2024/04/04 05:08:04;;;;;;;1.87;1.20;;;16.50;63.80;;;;;;5020809;28;20453;-62
2024/04/04 05:10:30;;;;;;;2.07;1.20;;;16.50;63.20;;;;;;5007962;28;20562;-62
2024/04/04 05:12:56;;;;;;;1.77;1.00;;;16.60;63.00;;;;;;5010124;28;20441;-62
2024/04/04 05:15:22;;;;;;;1.63;1.00;;;16.60;63.00;;;;;;5019704;28;20416;-63
2024/04/04 05:17:47;;;;;;;2.17;1.40;;;16.70;62.60;;;;;;5005513;28;20464;-62
2024/04/04 05:20:13;;;;;;;1.27;1.03;;;16.70;62.40;;;;;;5001714;28;20444;-59
2024/04/04 05:22:43;;;;;;;1.37;1.07;;;16.70;62.50;;;;;;5001906;28;20198;-68
2024/04/04 05:25:14;;;;;;;2.23;0.80;;;16.70;62.50;;;;;;5004756;28;20951;-65
2024/04/04 05:27:42;;;;;;;1.33;0.80;;;16.80;62.40;;;;;;5001491;28;20501;-65
2024/04/04 05:30:13;;;;;;;1.87;1.20;;;16.80;62.00;;;;;;5001569;28;20437;-64
2024/04/04 05:32:40;;;;;;;1.80;1.10;;;16.90;61.80;;;;;;5004160;28;20449;-64
2024/04/04 05:35:06;;;;;;;1.70;1.10;;;16.90;61.70;;;;;;5009978;28;20472;-58
2024/04/04 05:37:32;;;;;;;4.40;1.53;;;16.90;61.50;;;;;;5004586;28;20465;-62
2024/04/04 05:39:58;;;;;;;1.77;1.10;;;16.90;61.50;;;;;;5007814;28;20449;-64
2024/04/04 05:42:26;;;;;;;1.33;0.87;;;17.00;61.40;;;;;;5011137;28;20427;-64
2024/04/04 05:44:52;;;;;;;1.47;0.93;;;17.00;61.40;;;;;;5005518;28;20190;-59
2024/04/04 05:47:17;;;;;;;2.70;0.97;;;17.10;61.30;;;;;;5005848;28;20515;-57
2024/04/04 05:49:43;;;;;;;1.63;1.17;;;17.00;61.20;;;;;;5012543;28;20186;-58
2024/04/04 05:52:08;;;;;;;4.30;1.33;;;16.90;62.30;;;;;;5017917;28;20189;-58
2024/04/04 05:54:36;;;;;;;2.20;0.80;;;16.90;61.40;;;;;;5017173;28;20190;-65
2024/04/04 05:57:03;;;;;;;1.60;1.00;;;16.90;61.40;;;;;;5017277;28;20682;-60
2024/04/04 05:59:29;;;;;;;2.43;1.10;;;16.50;62.10;;;;;;5018549;28;20428;-57
2024/04/04 06:01:54;;;;;;;2.20;1.10;;;16.60;62.60;;;;;;5011589;28;20510;-60
2024/04/04 06:04:20;;;;;;;1.70;1.00;;;16.80;62.40;;;;;;5014404;28;20188;-61
2024/04/04 06:06:45;;;;;;;3.23;0.90;;;16.80;61.90;;;;;;5013156;28;20219;-57
2024/04/04 06:09:11;;;;;;;3.90;1.07;;;16.90;61.80;;;;;;5011031;28;20208;-60
2024/04/04 06:11:38;;;;;;;2.47;1.10;;;17.00;61.20;;;;;;5013593;28;20288;-56
2024/04/04 06:14:04;;;;;;;3.47;1.07;;;17.00;61.20;;;;;;5011466;28;20198;-60
2024/04/04 06:16:29;;;;;;;1.70;1.20;;;17.10;60.80;;;;;;5015835;28;20979;-60
2024/04/04 06:18:55;;;;;;;1.90;1.00;;;17.10;61.00;;;;;;5016935;28;20201;-57
2024/04/04 06:21:20;;;;;;;6.20;1.80;;;17.20;60.80;;;;;;5015263;28;20217;-59
2024/04/04 06:23:46;;;;;;;1.57;1.00;;;17.20;60.40;;;;;;5015486;28;20189;-59
2024/04/04 06:26:11;;;;;;;3.57;1.30;;;17.30;60.70;;;;;;5013256;28;20197;-59
2024/04/04 06:28:37;;;;;;;2.70;1.00;;;17.30;60.60;;;;;;5010013;28;20651;-69
2024/04/04 06:31:03;;;;;;;1.10;1.00;;;17.30;60.90;;;;;;5011814;28;20554;-60
2024/04/04 06:33:28;;;;;;;3.13;1.10;;;17.50;60.40;;;;;;5011472;28;20299;-65
2024/04/04 06:35:54;;;;;;;3.27;1.33;;;17.50;60.10;;;;;;5006798;28;20209;-62
2024/04/04 06:38:19;;;;;;;3.27;1.20;;;17.50;59.70;;;;;;5004846;28;20202;-62
2024/04/04 06:40:45;;;;;;;2.27;1.20;;;17.50;60.10;;;;;;5016879;28;20217;-65
2024/04/04 06:43:10;;;;;;;5.00;1.23;;;17.60;60.00;;;;;;5013184;28;20531;-62
2024/04/04 06:45:36;;;;;;;2.53;1.23;;;17.30;60.40;;;;;;5023759;28;20612;-57
2024/04/04 06:48:01;;;;;;;6.93;1.60;;;17.30;60.90;;;;;;5015211;28;20210;-59
2024/04/04 06:50:28;;;;;;;3.80;1.40;;;17.50;60.60;;;;;;5020540;28;20191;-59
2024/04/04 06:52:55;;;;;;;2.70;1.30;;;17.50;59.90;;;;;;5020777;28;20280;-60
2024/04/04 06:55:20;;;;;;;4.77;1.50;;;17.70;59.30;;;;;;5017690;28;20457;-57
2024/04/04 06:57:46;;;;;;;1.93;1.07;;;17.80;59.00;;;;;;5017763;28;21205;-59
2024/04/04 07:00:13;;;;;;;5.77;1.70;;;17.90;59.00;;;;;;5021850;28;20553;-56
2024/04/04 07:02:39;;;;;;;5.90;1.70;;;18.00;58.50;;;;;;5024304;28;20519;-67
2024/04/04 07:05:06;;;;;;;3.00;1.30;;;18.00;58.30;;;;;;5023199;28;20507;-65
2024/04/04 07:07:31;;;;;;;6.13;1.33;;;17.80;58.10;;;;;;5020434;28;20263;-60
2024/04/04 07:09:57;;;;;;;3.90;1.63;;;18.00;58.40;;;;;;5012891;28;20417;-62
2024/04/04 07:12:22;;;;;;;4.87;1.80;;;18.10;57.90;;;;;;5013353;28;20181;-57
2024/04/04 07:14:48;;;;;;;2.87;1.33;;;18.20;57.50;;;;;;5016320;28;20678;-60
2024/04/04 07:17:13;;;;;;;6.80;1.63;;;18.40;57.50;;;;;;5017624;28;20202;-57
2024/04/04 07:19:39;;;;;;;1.80;1.40;;;18.40;56.40;;;;;;5012491;28;20652;-69
2024/04/04 07:22:05;;;;;;;4.90;1.97;;;18.70;56.20;;;;;;5013010;28;20211;-57
2024/04/04 07:24:30;;;;;;;6.13;1.60;;;18.70;55.80;;;;;;5018854;28;20185;-60
2024/04/04 07:26:56;;;;;;;3.70;1.57;;;18.70;55.50;;;;;;5019813;28;20210;-59
2024/04/04 07:29:21;;;;;;;6.50;1.70;;;18.60;55.30;;;;;;5014149;28;20808;-59
2024/04/04 07:31:47;;;;;;;4.33;1.47;;;18.40;55.30;;;;;;5010610;28;20190;-68
2024/04/04 07:34:12;;;;;;;9.40;1.90;;;18.40;56.00;;;;;;5019299;28;20200;-57
2024/04/04 07:36:38;;;;;;;5.70;1.53;;;18.70;55.90;;;;;;5017989;28;20297;-65
2024/04/04 07:39:04;;;;;;;5.70;1.53;;;18.70;55.40;;;;;;5018060;28;20186;-59
2024/04/04 07:41:30;;;;;;;3.60;1.60;;;18.50;55.00;;;;;;5012126;28;20210;-58
2024/04/04 07:43:56;;;;;;;3.70;1.63;;;18.50;55.50;;;;;;5010965;28;20460;-65
2024/04/04 07:46:22;;;;;;;7.57;2.13;;;18.30;55.20;;;;;;5009743;28;20964;-60
2024/04/04 07:48:47;;;;;;;4.07;1.53;;;18.10;55.30;;;;;;5008678;28;20456;-65
2024/04/04 07:51:14;;;;;;;5.40;1.80;;;18.10;55.60;;;;;;5016774;28;20174;-60
2024/04/04 07:53:40;;;;;;;6.73;1.67;;;17.80;56.10;;;;;;5007255;28;20241;-61
2024/04/04 07:56:06;;;;;;;3.40;1.70;;;17.90;56.30;;;;;;5019122;28;20936;-64
2024/04/04 07:58:31;;;;;;;2.73;1.30;;;17.90;56.10;;;;;;5016208;28;20229;-56
2024/04/04 08:00:57;;;;;;;5.67;2.20;;;17.80;57.30;;;;;;5015863;28;20213;-60
2024/04/04 08:03:23;;;;;;;6.67;1.90;;;17.60;59.10;;;;;;5011535;28;20243;-59
2024/04/04 08:05:48;;;;;;;4.63;1.47;;;17.70;59.10;;;;;;5010789;28;20573;-60
2024/04/04 08:08:14;;;;;;;3.50;1.90;;;17.80;59.20;;;;;;5002986;28;20205;-61
2024/04/04 08:10:40;;;;;;;7.83;1.50;;;17.50;58.20;;;;;;5006944;28;20277;-61
2024/04/04 08:13:06;;;;;;;3.83;1.40;;;17.40;58.40;;;;;;5011723;28;20190;-65
2024/04/04 08:15:32;;;;;;;3.50;1.10;;;17.40;58.70;;;;;;5013908;28;20670;-65
2024/04/04 08:17:58;;;;;;;5.20;1.40;;;17.40;58.10;;;;;;5020908;28;20448;-60
2024/04/04 08:20:24;;;;;;;3.37;1.77;;;17.70;58.10;;;;;;5019990;28;20444;-60
2024/04/04 08:22:51;;;;;;;2.73;1.10;;;17.40;57.40;;;;;;5017096;28;20547;-58
2024/04/04 08:25:17;;;;;;;2.87;1.47;;;17.40;57.20;;;;;;5020815;28;20415;-59
2024/04/04 08:27:44;;;;;;;2.83;1.50;;;17.50;57.30;;;;;;5013898;28;20457;-59
2024/04/04 08:30:11;;;;;;;6.97;1.47;;;17.40;57.40;;;;;;5010183;28;20600;-58
2024/04/04 08:32:36;;;;;;;4.47;1.47;;;17.40;57.60;;;;;;5017694;28;20476;-59
2024/04/04 08:35:02;;;;;;;2.17;1.23;;;17.60;57.60;;;;;;5019149;28;20456;-58
2024/04/04 08:37:28;;;;;;;3.93;1.30;;;17.70;57.30;;;;;;5019383;28;20217;-58
2024/04/04 08:39:54;;;;;;;3.40;1.50;;;17.50;57.00;;;;;;5020631;28;20185;-59
2024/04/04 08:42:25;;;;;;;5.43;1.60;;;17.80;57.20;;;;;;5018127;28;20515;-58
2024/04/04 08:44:53;;;;;;;5.60;2.40;;;17.80;57.20;;;;;;5021156;28;20453;-58
2024/04/04 08:47:20;;;;;;;4.53;1.60;;;17.60;57.40;;;;;;5004368;28;20484;-59
2024/04/04 08:49:47;;;;;;;4.83;1.53;;;17.50;58.00;;;;;;5017347;28;20448;-58
2024/04/04 08:52:14;;;;;;;2.40;1.30;;;17.40;57.40;;;;;;5008155;28;20448;-58
2024/04/04 08:54:41;;;;;;;4.97;1.80;;;17.40;57.60;;;;;;5006383;28;20461;-57
2024/04/04 08:57:07;;;;;;;2.67;1.37;;;17.50;58.30;;;;;;5007982;28;21144;-57
2024/04/04 08:59:33;;;;;;;5.70;1.87;;;17.40;58.50;;;;;;5010095;28;20441;-58
2024/04/04 09:02:00;;;;;;;3.63;1.43;;;17.60;58.40;;;;;;5007182;28;20488;-59
2024/04/04 09:04:31;;;;;;;2.53;1.73;;;17.60;58.20;;;;;;5009680;28;20441;-59
2024/04/04 09:06:57;;;;;;;3.20;1.80;;;17.40;58.20;;;;;;5006659;28;20823;-59
2024/04/04 09:09:23;;;;;;;4.77;2.60;;;17.30;58.70;;;;;;5007254;28;20437;-59
2024/04/04 09:11:49;;;;;;;6.37;2.00;;;17.40;58.80;;;;;;5008118;28;20449;-60
2024/04/04 09:14:15;;;;;;;4.00;1.50;;;17.50;58.60;;;;;;5006955;28;20178;-59
2024/04/04 09:16:45;;;;;;;2.67;1.40;;;17.50;59.00;;;;;;5008885;28;21074;-59
2024/04/04 09:19:12;;;;;;;3.97;1.20;;;17.50;58.70;;;;;;5007463;28;20656;-59
2024/04/04 09:21:39;;;;;;;8.30;2.13;;;17.50;59.00;;;;;;5013895;28;20535;-60
2024/04/04 09:24:08;;;;;;;4.50;1.57;;;17.50;59.50;;;;;;5003725;28;20810;-60
2024/04/04 09:26:35;;;;;;;3.23;1.33;;;17.40;58.90;;;;;;5011492;28;20511;-61
2024/04/04 09:29:03;;;;;;;3.00;1.30;;;17.10;59.30;;;;;;5009016;28;20611;-60
2024/04/04 09:31:32;;;;;;;3.87;1.40;;;17.20;59.70;;;;;;5008853;28;20460;-58
2024/04/04 09:33:59;;;;;;;4.37;1.50;;;17.40;59.60;;;;;;5015375;28;20424;-58
2024/04/04 09:36:27;;;;;;;4.50;1.23;;;17.60;59.30;;;;;;5009821;28;20443;-60
2024/04/04 09:38:54;;;;;;;4.57;2.13;;;17.80;58.80;;;;;;5002798;28;20449;-58
2024/04/04 09:41:21;;;;;;;4.00;1.53;;;17.90;58.50;;;;;;5006647;28;20476;-60
2024/04/04 09:43:47;;;;;;;6.03;1.47;;;18.00;58.10;;;;;;5005819;28;20440;-60
2024/04/04 09:46:16;;;;;;;3.43;1.50;;;17.90;57.70;;;;;;5005263;28;20448;-59
2024/04/04 09:48:44;;;;;;;4.37;1.60;;;17.80;58.40;;;;;;5009657;28;20449;-59
2024/04/04 09:51:11;;;;;;;6.67;1.77;;;18.00;58.30;;;;;;4998146;28;20541;-56
2024/04/04 09:53:38;;;;;;;3.33;1.70;;;18.10;58.30;;;;;;5003483;28;20499;-58
2024/04/04 09:56:05;;;;;;;4.63;1.80;;;18.30;58.20;;;;;;5003528;28;21135;-59
2024/04/04 09:58:35;;;;;;;7.13;2.00;;;18.30;58.20;;;;;;5006510;28;20462;-60
2024/04/04 10:01:25;;;;;;;2.83;1.50;;;18.30;57.40;;;;;;5009243;28;20464;-61
2024/04/04 10:03:59;;;;;;;2.17;1.07;;;18.50;57.90;;;;;;5015586;28;20448;-60
2024/04/04 10:06:36;;;;;;;4.20;1.77;;;18.60;57.30;;;;;;5012552;28;20466;-58
2024/04/04 10:09:21;;;;;;;2.23;1.30;;;18.70;57.30;;;;;;5016409;28;20436;-59
2024/04/04 10:11:51;;;;;;;11.93;2.23;;;18.60;56.70;;;;;;5007811;28;20503;-60
2024/04/04 10:14:21;;;;;;;3.13;1.77;;;18.50;57.10;;;;;;5004894;28;20452;-61
2024/04/04 10:16:54;;;;;;;3.40;2.10;;;18.60;57.60;;;;;;5007347;28;20448;-60
2024/04/04 10:19:22;;;;;;;4.47;1.83;;;18.50;57.30;;;;;;5008052;28;20479;-59
2024/04/04 10:21:48;;;;;;;4.93;1.60;;;18.50;58.00;;;;;;5006440;28;20480;-58
2024/04/04 10:24:32;;;;;;;4.17;1.23;;;18.10;58.00;;;;;;5007644;28;20791;-60
2024/04/04 10:27:07;;;;;;;5.00;1.23;;;17.90;58.80;;;;;;5006023;28;20476;-58
2024/04/04 10:29:38;;;;;;;7.30;1.50;;;18.20;59.50;;;;;;5006336;28;20431;-58
2024/04/04 10:32:06;;;;;;;1.97;1.20;;;18.00;58.90;;;;;;5006948;28;20813;-59
2024/04/04 10:34:33;;;;;;;11.30;2.23;;;17.80;58.90;;;;;;4999899;28;20503;-60
2024/04/04 10:36:58;;;;;;;4.43;1.33;;;17.80;59.60;;;;;;5008163;28;21015;-60
2024/04/04 10:39:24;;;;;;;3.03;1.10;;;17.80;59.20;;;;;;5000056;28;20474;-59
2024/04/04 10:41:56;;;;;;;4.93;1.60;;;17.70;59.60;;;;;;5000338;28;20336;-59
2024/04/04 10:44:22;;;;;;;4.27;1.80;;;17.60;60.00;;;;;;5007407;28;20255;-60
2024/04/04 10:46:52;;;;;;;5.17;1.97;;;17.60;59.50;;;;;;5001994;28;20476;-57
2024/04/04 10:49:20;;;;;;;2.93;1.13;;;17.60;60.30;;;;;;5004854;28;20421;-60
2024/04/04 10:51:55;;;;;;;2.10;1.07;;;17.80;60.40;;;;;;5009294;28;20429;-58
2024/04/04 10:54:22;;;;;;;3.50;1.77;;;17.80;59.30;;;;;;5006697;28;20878;-60
2024/04/04 10:56:48;;;;;;;4.40;1.60;;;17.80;59.10;;;;;;5006927;28;21173;-59
2024/04/04 10:59:17;;;;;;;5.90;1.50;;;17.60;60.00;;;;;;5007859;28;20429;-59
2024/04/04 11:01:47;;;;;;;4.80;1.40;;;17.70;59.90;;;;;;5004687;28;20469;-59
2024/04/04 11:04:13;;;;;;;4.70;1.83;;;17.90;60.00;;;;;;5004675;28;20440;-60
2024/04/04 11:06:40;;;;;;;4.47;1.53;;;17.90;59.70;;;;;;5007458;28;21073;-58
2024/04/04 11:09:11;;;;;;;4.00;1.50;;;17.80;59.90;;;;;;5005738;28;20456;-59
2024/04/04 11:11:40;;;;;;;2.33;1.20;;;17.80;59.90;;;;;;5014385;28;20424;-60
2024/04/04 11:14:06;;;;;;;2.77;1.40;;;17.80;60.40;;;;;;5007794;28;20449;-60
2024/04/04 11:16:32;;;;;;;3.00;1.57;;;18.00;60.80;;;;;;5009915;28;20526;-60
2024/04/04 11:18:58;;;;;;;2.77;1.50;;;18.10;60.00;;;;;;5008611;28;20676;-60
2024/04/04 11:21:24;;;;;;;2.90;1.30;;;18.10;60.00;;;;;;5006386;28;20524;-57
2024/04/04 11:23:49;;;;;;;7.47;1.60;;;17.90;58.70;;;;;;5003512;28;21012;-60
2024/04/04 11:26:15;;;;;;;2.00;1.27;;;17.80;59.90;;;;;;5007584;28;20190;-59
2024/04/04 11:28:41;;;;;;;2.20;1.27;;;17.90;59.50;;;;;;5006812;28;20190;-60
2024/04/04 11:31:06;;;;;;;5.10;1.67;;;17.80;59.70;;;;;;5013698;28;20194;-60
2024/04/04 11:33:32;;;;;;;1.80;1.10;;;17.90;59.20;;;;;;5005220;28;20193;-59
2024/04/04 11:36:00;;;;;;;3.10;1.30;;;17.90;59.60;;;;;;5009544;28;20186;-59
2024/04/04 11:38:26;;;;;;;6.60;1.40;;;18.00;59.70;;;;;;5004798;28;20465;-56
2024/04/04 11:40:51;;;;;;;2.27;0.93;;;17.90;59.50;;;;;;5003132;28;20465;-59
2024/04/04 11:43:18;;;;;;;4.37;1.90;;;17.70;60.00;;;;;;5012595;28;20481;-59
2024/04/04 11:45:43;;;;;;;1.87;1.33;;;17.80;60.00;;;;;;5008649;28;20543;-60
2024/04/04 11:48:09;;;;;;;3.63;1.20;;;17.60;59.80;;;;;;5012629;28;20463;-59
2024/04/04 11:50:36;;;;;;;2.63;1.13;;;17.50;60.10;;;;;;5019768;28;20538;-58
2024/04/04 11:53:02;;;;;;;4.27;1.20;;;17.70;60.80;;;;;;5003544;28;20310;-60
2024/04/04 11:55:28;;;;;;;3.10;1.30;;;17.70;60.50;;;;;;5003427;28;21276;-59
2024/04/04 11:57:54;;;;;;;4.40;1.13;;;17.60;60.50;;;;;;5007804;28;20292;-59
2024/04/04 12:00:20;;;;;;;2.67;1.60;;;17.60;60.70;;;;;;5003190;28;20488;-58
2024/04/04 12:02:47;;;;;;;2.23;1.50;;;17.70;60.60;;;;;;5010347;28;20483;-59
2024/04/04 12:05:14;;;;;;;3.70;1.50;;;17.90;60.90;;;;;;5010715;28;20488;-59
2024/04/04 12:07:41;;;;;;;3.00;1.57;;;18.20;61.00;;;;;;5007920;28;20880;-56
2024/04/04 12:10:09;;;;;;;4.20;1.57;;;18.30;59.40;;;;;;5003874;28;20460;-56
2024/04/04 12:12:35;;;;;;;6.33;1.57;;;17.90;58.90;;;;;;5004254;28;21047;-59
2024/04/04 12:15:06;;;;;;;7.03;1.47;;;17.80;59.80;;;;;;5006616;28;20539;-59
2024/04/04 12:17:32;;;;;;;2.57;1.20;;;17.90;58.70;;;;;;5006727;28;20502;-59
2024/04/04 12:19:58;;;;;;;4.53;1.53;;;17.80;58.80;;;;;;5010224;28;20433;-56
2024/04/04 12:22:23;;;;;;;1.93;1.13;;;17.90;59.00;;;;;;5009877;28;20582;-60
2024/04/04 12:24:49;;;;;;;3.90;1.63;;;17.70;58.70;;;;;;5008830;28;20205;-58
2024/04/04 12:27:15;;;;;;;4.20;1.70;;;18.00;59.00;;;;;;5009228;28;20213;-58
2024/04/04 12:29:40;;;;;;;3.33;1.60;;;17.90;59.20;;;;;;5001157;28;20348;-59
2024/04/04 12:32:06;;;;;;;1.50;1.23;;;17.90;59.10;;;;;;5011870;28;20189;-59
2024/04/04 12:34:31;;;;;;;2.20;1.40;;;18.00;59.20;;;;;;5010102;28;20182;-59
2024/04/04 12:36:57;;;;;;;2.17;1.30;;;17.90;58.70;;;;;;5007078;28;20256;-57
2024/04/04 12:39:23;;;;;;;4.23;1.40;;;17.80;59.10;;;;;;5011651;28;20189;-59
2024/04/04 12:41:48;;;;;;;3.07;1.37;;;17.70;59.20;;;;;;5005140;28;20899;-57
2024/04/04 12:44:14;;;;;;;1.93;1.03;;;17.70;59.20;;;;;;5008804;28;20186;-59